createdAt,value
2019-01-09T00:01:39.876Z,72.90
2019-01-09T00:04:10.990Z,73.90
2019-01-09T00:06:41.920Z,73.10
2019-01-09T00:09:13.176Z,73.40
2019-01-09T00:11:44.226Z,73.20
2019-01-09T00:14:15.451Z,74.00
2019-01-09T00:16:46.635Z,73.10
2019-01-09T00:19:17.848Z,73.30
2019-01-09T00:21:48.981Z,73.40
2019-01-09T00:24:20.308Z,73.70
2019-01-09T00:26:53.433Z,73.90
2019-01-09T00:29:24.404Z,73.80
2019-01-09T00:31:55.355Z,73.80
2019-01-09T00:34:26.682Z,73.90
2019-01-09T00:36:57.773Z,74.00
2019-01-09T00:39:28.795Z,74.00
2019-01-09T00:41:59.914Z,73.70
2019-01-09T00:44:31.124Z,74.00
2019-01-09T00:47:02.236Z,73.90
2019-01-09T00:49:33.350Z,73.60
2019-01-09T00:52:04.545Z,73.60
2019-01-09T00:54:35.682Z,73.50
2019-01-09T00:57:08.137Z,73.60
2019-01-09T00:59:39.190Z,73.70
2019-01-09T01:02:50.944Z,73.90
2019-01-09T01:05:50.466Z,73.90
2019-01-09T01:09:21.843Z,74.00
2019-01-09T01:12:31.508Z,74.20
2019-01-09T01:15:46.535Z,74.40
2019-01-09T01:19:13.211Z,74.30
2019-01-09T01:21:52.435Z,74.10
2019-01-09T01:24:58.806Z,74.40
2019-01-09T01:28:04.755Z,74.50
2019-01-09T01:30:59.484Z,74.40
2019-01-09T01:33:56.362Z,74.20
2019-01-09T01:36:59.656Z,74.40
2019-01-09T01:40:10.445Z,75.00
2019-01-09T01:43:18.279Z,74.30
2019-01-09T01:46:13.046Z,74.50
2019-01-09T01:49:29.852Z,74.50
2019-01-09T01:53:09.059Z,74.50
2019-01-09T01:56:03.141Z,75.00
2019-01-09T01:59:23.049Z,74.20
2019-01-09T02:02:41.477Z,74.00
2019-01-09T02:06:03.714Z,73.80
2019-01-09T02:08:54.877Z,73.90
2019-01-09T02:12:06.761Z,73.50
2019-01-09T02:15:05.421Z,73.30
2019-01-09T02:18:06.900Z,73.40
2019-01-09T02:21:14.165Z,73.40
2019-01-09T02:24:41.302Z,73.70
2019-01-09T02:27:35.542Z,73.60
2019-01-09T02:30:42.177Z,73.30
2019-01-09T02:33:13.155Z,73.10
2019-01-09T02:35:44.171Z,73.20
2019-01-09T02:38:15.252Z,73.30
2019-01-09T02:40:46.298Z,73.20
2019-01-09T02:43:17.276Z,72.90
2019-01-09T02:45:48.171Z,73.00
2019-01-09T02:48:19.258Z,73.00
2019-01-09T02:50:50.199Z,73.10
2019-01-09T02:53:21.208Z,73.20
2019-01-09T02:55:52.240Z,73.50
2019-01-09T02:58:23.435Z,73.60
2019-01-09T03:00:54.546Z,73.70
2019-01-09T03:03:25.744Z,73.40
2019-01-09T03:05:56.615Z,73.30
2019-01-09T03:08:27.616Z,72.90
2019-01-09T03:10:58.578Z,72.90
2019-01-09T03:13:29.679Z,72.90
2019-01-09T03:16:00.580Z,73.10
2019-01-09T03:18:31.684Z,73.20
2019-01-09T03:21:02.695Z,73.30
2019-01-09T03:23:33.883Z,73.20
2019-01-09T03:26:06.058Z,73.30
2019-01-09T03:28:37.134Z,72.90
2019-01-09T03:31:08.205Z,73.00
2019-01-09T03:33:39.177Z,72.80
2019-01-09T03:36:10.135Z,72.50
2019-01-09T03:38:41.129Z,72.60
2019-01-09T03:41:12.143Z,72.90
2019-01-09T03:43:43.232Z,72.10
2019-01-09T03:46:17.171Z,72.40
2019-01-09T03:48:48.131Z,72.60
2019-01-09T03:51:19.046Z,72.40
2019-01-09T03:53:50.047Z,72.00
2019-01-09T03:56:21.174Z,72.20
2019-01-09T03:58:52.145Z,71.50
2019-01-09T04:01:23.074Z,71.80
2019-01-09T04:03:54.027Z,71.80
2019-01-09T04:06:28.077Z,71.80
2019-01-09T04:08:59.324Z,72.20
2019-01-09T04:11:50.986Z,72.40
2019-01-09T04:17:11.441Z,72.50
2019-01-09T04:19:42.456Z,72.50
2019-01-09T04:22:13.533Z,72.70
2019-01-09T04:24:44.653Z,72.90
2019-01-09T04:27:15.527Z,72.90
2019-01-09T04:29:46.464Z,72.70
2019-01-09T04:32:17.387Z,72.50
2019-01-09T04:34:48.410Z,72.40
2019-01-09T04:37:19.488Z,72.20
2019-01-09T04:39:50.510Z,72.40
2019-01-09T04:42:21.677Z,72.50
2019-01-09T04:44:52.692Z,72.40
2019-01-09T04:47:23.755Z,72.90
2019-01-09T04:49:54.802Z,72.40
2019-01-09T04:52:25.841Z,72.30
2019-01-09T04:54:57.022Z,72.70
2019-01-09T04:57:28.123Z,72.40
2019-01-09T04:59:59.942Z,72.50
2019-01-09T05:02:31.031Z,72.50
2019-01-09T05:05:02.551Z,72.70
2019-01-09T05:07:33.887Z,72.80
2019-01-09T05:10:05.305Z,72.90
2019-01-09T05:12:36.950Z,73.20
2019-01-09T05:15:08.602Z,73.10
2019-01-09T05:17:39.715Z,73.00
2019-01-09T05:20:10.802Z,72.80
2019-01-09T05:22:41.807Z,72.60
2019-01-09T05:25:12.975Z,72.90
2019-01-09T05:27:44.236Z,72.70
2019-01-09T05:30:15.828Z,73.00
2019-01-09T05:32:46.946Z,73.10
2019-01-09T05:35:17.979Z,72.90
2019-01-09T05:37:48.881Z,73.00
2019-01-09T05:40:20.566Z,73.30
2019-01-09T05:42:51.637Z,73.30
2019-01-09T05:45:23.187Z,73.30
2019-01-09T05:47:54.546Z,73.20
2019-01-09T05:50:25.733Z,73.00
2019-01-09T05:52:57.008Z,72.70
2019-01-09T05:55:28.113Z,72.70
2019-01-09T05:57:59.797Z,72.70
2019-01-09T06:00:32.252Z,72.60
2019-01-09T06:03:03.369Z,72.60
2019-01-09T06:05:35.038Z,72.40
2019-01-09T06:08:07.199Z,72.30
2019-01-09T06:10:38.870Z,72.40
2019-01-09T06:13:11.188Z,72.40
2019-01-09T06:15:42.920Z,72.50
2019-01-09T06:18:14.001Z,72.60
2019-01-09T06:20:45.100Z,72.60
2019-01-09T06:23:16.676Z,72.50
2019-01-09T06:25:48.338Z,72.40
2019-01-09T06:28:19.387Z,72.40
2019-01-09T06:30:51.130Z,72.30
2019-01-09T06:33:22.846Z,72.30
2019-01-09T06:35:54.654Z,72.20
2019-01-09T06:38:26.303Z,72.00
2019-01-09T06:40:59.204Z,72.10
2019-01-09T06:43:31.603Z,72.30
2019-01-09T06:46:02.727Z,72.20
2019-01-09T06:48:34.379Z,71.60
2019-01-09T06:51:06.145Z,71.50
2019-01-09T06:53:37.721Z,71.60
2019-01-09T06:56:09.475Z,71.70
2019-01-09T06:58:42.346Z,71.90
2019-01-09T07:01:14.007Z,71.80
2019-01-09T07:03:45.611Z,71.90
2019-01-09T07:06:16.791Z,72.00
2019-01-09T07:08:48.215Z,72.10
2019-01-09T07:11:19.907Z,72.60
2019-01-09T07:13:51.719Z,72.50
2019-01-09T07:16:23.542Z,72.50
2019-01-09T07:18:55.334Z,72.50
2019-01-09T07:21:26.544Z,72.60
2019-01-09T07:23:58.296Z,72.20
2019-01-09T07:26:30.177Z,72.40
2019-01-09T07:29:01.856Z,72.50
2019-01-09T07:31:33.770Z,72.50
2019-01-09T07:34:05.442Z,72.50
2019-01-09T07:36:36.716Z,72.50
2019-01-09T07:39:09.279Z,72.50
2019-01-09T07:41:40.992Z,72.40
2019-01-09T07:44:12.868Z,72.50
2019-01-09T07:46:46.004Z,72.20
2019-01-09T07:49:17.201Z,72.50
2019-01-09T07:51:48.737Z,72.60
2019-01-09T07:54:19.993Z,72.70
2019-01-09T07:56:51.040Z,72.40
2019-01-09T07:59:22.694Z,72.40
2019-01-09T08:01:54.593Z,72.60
2019-01-09T08:04:26.226Z,72.70
2019-01-09T08:06:57.922Z,72.80
2019-01-09T08:09:29.661Z,73.00
2019-01-09T08:12:01.419Z,73.20
2019-01-09T08:14:33.208Z,73.40
2019-01-09T08:17:04.926Z,73.30
2019-01-09T08:19:36.591Z,73.20
2019-01-09T08:22:08.173Z,73.40
2019-01-09T08:24:39.827Z,73.80
2019-01-09T08:27:11.193Z,73.80
2019-01-09T08:29:42.834Z,73.50
2019-01-09T08:32:14.598Z,73.40
2019-01-09T08:34:46.236Z,73.20
2019-01-09T08:37:18.071Z,73.40
2019-01-09T08:39:49.753Z,73.60
2019-01-09T08:42:21.641Z,73.40
2019-01-09T08:44:53.343Z,73.20
2019-01-09T08:47:24.968Z,73.40
2019-01-09T08:49:56.675Z,73.50
2019-01-09T08:52:28.562Z,73.40
2019-01-09T08:55:00.386Z,73.40
2019-01-09T08:57:32.290Z,73.50
2019-01-09T09:00:05.753Z,73.30
2019-01-09T09:02:37.396Z,73.40
2019-01-09T09:05:09.292Z,73.20
2019-01-09T09:07:42.147Z,73.20
2019-01-09T09:10:14.750Z,73.20
2019-01-09T09:12:46.938Z,73.30
2019-01-09T09:15:18.621Z,73.20
2019-01-09T09:17:50.426Z,73.70
2019-01-09T09:20:22.304Z,73.00
2019-01-09T09:22:54.057Z,73.00
2019-01-09T09:25:25.697Z,73.10
2019-01-09T09:27:57.343Z,73.20
2019-01-09T09:30:29.018Z,73.00
2019-01-09T09:33:00.768Z,72.50
2019-01-09T09:35:32.774Z,72.60
2019-01-09T09:38:04.079Z,72.80
2019-01-09T09:40:35.609Z,72.80
2019-01-09T09:43:07.341Z,72.70
2019-01-09T09:45:38.698Z,72.30
2019-01-09T09:48:11.634Z,72.40
2019-01-09T09:50:44.250Z,72.40
2019-01-09T09:53:15.867Z,72.40
2019-01-09T09:55:47.011Z,72.50
2019-01-09T09:58:18.849Z,72.60
2019-01-09T10:00:50.630Z,72.30
2019-01-09T10:03:22.386Z,72.50
2019-01-09T10:05:54.081Z,72.70
2019-01-09T10:08:29.540Z,72.90
2019-01-09T10:10:59.119Z,72.80
2019-01-09T10:13:31.063Z,72.60
2019-01-09T10:16:02.740Z,72.60
2019-01-09T10:18:34.516Z,72.70
2019-01-09T10:21:06.547Z,73.10
2019-01-09T10:23:38.431Z,72.90
2019-01-09T10:26:10.171Z,72.70
2019-01-09T10:28:41.985Z,72.80
2019-01-09T10:31:13.691Z,72.50
2019-01-09T10:33:45.414Z,72.70
2019-01-09T10:36:17.192Z,72.70
2019-01-09T10:38:49.258Z,72.30
2019-01-09T10:41:20.763Z,72.20
2019-01-09T10:43:52.673Z,72.40
2019-01-09T10:46:24.337Z,72.20
2019-01-09T10:48:56.224Z,72.00
2019-01-09T10:51:28.190Z,71.90
2019-01-09T10:54:00.744Z,72.10
2019-01-09T10:56:32.679Z,72.30
2019-01-09T10:59:04.860Z,72.20
2019-01-09T11:01:36.408Z,72.30
2019-01-09T11:04:07.664Z,72.20
2019-01-09T11:06:38.779Z,72.10
2019-01-09T11:09:10.788Z,72.30
2019-01-09T11:11:42.488Z,72.30
2019-01-09T11:14:14.218Z,72.50
2019-01-09T11:16:45.903Z,72.30
2019-01-09T11:19:17.626Z,72.30
2019-01-09T11:21:49.854Z,72.30
2019-01-09T11:24:21.654Z,72.40
2019-01-09T11:26:53.277Z,72.40
2019-01-09T11:29:24.805Z,72.40
2019-01-09T11:31:56.849Z,72.50
2019-01-09T11:34:28.580Z,72.90
2019-01-09T11:36:59.675Z,73.10
2019-01-09T11:39:31.470Z,72.70
2019-01-09T11:42:03.608Z,72.70
2019-01-09T11:44:35.365Z,72.80
2019-01-09T11:47:07.329Z,72.70
2019-01-09T11:49:39.767Z,72.60
2019-01-09T11:52:12.161Z,72.70
2019-01-09T11:54:43.919Z,72.50
2019-01-09T11:57:15.620Z,72.50
2019-01-09T11:59:47.392Z,72.70
2019-01-09T12:02:22.127Z,72.90
2019-01-09T12:04:53.079Z,72.80
2019-01-09T12:07:24.631Z,72.70
2019-01-09T12:09:56.365Z,72.70
2019-01-09T12:12:28.218Z,72.70
2019-01-09T12:15:00.032Z,72.80
2019-01-09T12:17:31.795Z,72.80
2019-01-09T12:20:03.527Z,72.80
2019-01-09T12:22:35.269Z,72.60
2019-01-09T12:25:07.931Z,72.60
2019-01-09T12:27:40.126Z,72.60
2019-01-09T12:30:16.694Z,72.60
2019-01-09T12:32:48.549Z,72.60
2019-01-09T12:35:21.890Z,72.60
2019-01-09T12:37:53.608Z,72.30
2019-01-09T12:40:25.431Z,72.30
2019-01-09T12:42:57.080Z,72.40
2019-01-09T12:45:29.273Z,72.40
2019-01-09T12:48:00.921Z,72.60
2019-01-09T12:50:32.484Z,72.30
2019-01-09T12:53:04.207Z,72.10
2019-01-09T12:55:35.394Z,72.30
2019-01-09T12:58:07.102Z,72.40
2019-01-09T13:00:38.757Z,72.30
2019-01-09T13:03:10.508Z,72.40
2019-01-09T13:05:42.723Z,72.40
2019-01-09T13:08:14.457Z,72.40
2019-01-09T13:10:46.109Z,72.60
2019-01-09T13:13:17.807Z,73.30
2019-01-09T13:15:49.814Z,72.60
2019-01-09T13:18:21.898Z,72.50
2019-01-09T13:20:53.651Z,72.60
2019-01-09T13:23:25.436Z,72.90
2019-01-09T13:25:57.326Z,72.80
2019-01-09T13:28:28.967Z,72.70
2019-01-09T13:31:00.929Z,72.70
2019-01-09T13:33:32.649Z,72.70
2019-01-09T13:36:04.386Z,72.90
2019-01-09T13:38:36.301Z,72.90
2019-01-09T13:41:08.293Z,72.90
2019-01-09T13:43:39.542Z,72.80
2019-01-09T13:46:11.136Z,72.90
2019-01-09T13:48:42.813Z,73.00
2019-01-09T13:51:14.525Z,72.90
2019-01-09T13:53:46.313Z,73.00
2019-01-09T13:56:17.909Z,73.10
2019-01-09T13:58:49.158Z,73.10
2019-01-09T14:01:22.158Z,73.10
2019-01-09T14:03:53.861Z,73.30
2019-01-09T14:06:25.406Z,73.00
2019-01-09T14:08:56.499Z,73.20
2019-01-09T14:11:27.625Z,73.10
2019-01-09T14:13:58.713Z,73.00
2019-01-09T14:16:30.506Z,73.10
2019-01-09T14:19:02.196Z,73.20
2019-01-09T14:21:33.796Z,73.30
2019-01-09T14:24:06.047Z,73.10
2019-01-09T14:26:37.740Z,73.30
2019-01-09T14:29:09.496Z,73.10
2019-01-09T14:31:41.378Z,73.10
2019-01-09T14:34:13.071Z,73.30
2019-01-09T14:36:44.775Z,73.20
2019-01-09T14:39:15.824Z,73.20
2019-01-09T14:41:47.129Z,73.20
2019-01-09T14:44:18.228Z,73.10
2019-01-09T14:46:49.988Z,73.20
2019-01-09T14:49:20.984Z,73.30
2019-01-09T14:51:51.988Z,73.10
2019-01-09T14:54:22.998Z,73.30
2019-01-09T14:56:54.732Z,73.40
2019-01-09T14:59:26.336Z,73.40
2019-01-09T15:01:58.127Z,73.60
2019-01-09T15:04:29.798Z,73.40
2019-01-09T15:07:01.542Z,73.00
2019-01-09T15:09:32.655Z,73.00
2019-01-09T15:12:05.633Z,73.10
2019-01-09T15:14:37.295Z,73.30
2019-01-09T15:17:09.039Z,73.40
2019-01-09T15:19:40.808Z,73.20
2019-01-09T15:22:12.461Z,73.20
2019-01-09T15:24:44.163Z,73.40
2019-01-09T15:27:16.007Z,73.20
2019-01-09T15:29:47.158Z,73.30
2019-01-09T15:32:18.297Z,73.40
2019-01-09T15:34:49.978Z,73.40
2019-01-09T15:37:20.757Z,73.90
2019-01-09T15:39:51.530Z,73.30
2019-01-09T15:42:22.525Z,73.40
2019-01-09T15:44:53.387Z,73.20
2019-01-09T15:47:24.211Z,73.10
2019-01-09T15:49:56.184Z,73.20
2019-01-09T15:52:27.225Z,73.40
2019-01-09T15:54:58.161Z,73.30
2019-01-09T15:57:28.989Z,73.40
2019-01-09T15:59:59.923Z,73.50
2019-01-09T16:02:30.964Z,73.70
2019-01-09T16:05:02.603Z,73.60
2019-01-09T16:07:33.654Z,73.70
2019-01-09T16:10:04.801Z,73.80
2019-01-09T16:12:36.478Z,73.60
2019-01-09T16:15:09.698Z,73.50
2019-01-09T16:17:41.421Z,73.70
2019-01-09T16:20:16.855Z,73.70
2019-01-09T16:22:47.417Z,73.70
2019-01-09T16:25:19.238Z,73.70
2019-01-09T16:27:51.315Z,73.40
2019-01-09T16:30:50.437Z,73.40
2019-01-09T16:33:23.151Z,73.30
2019-01-09T16:35:54.997Z,73.50
2019-01-09T16:38:26.648Z,73.50
2019-01-09T16:40:58.380Z,73.40
2019-01-09T16:43:30.211Z,73.40
2019-01-09T16:46:02.335Z,73.40
2019-01-09T16:48:34.123Z,73.60
2019-01-09T16:51:05.663Z,73.90
2019-01-09T16:53:37.877Z,74.00
2019-01-09T16:56:09.636Z,73.80
2019-01-09T16:58:41.381Z,74.10
2019-01-09T17:01:13.228Z,74.00
2019-01-09T17:03:45.576Z,74.00
2019-01-09T17:06:17.506Z,73.90
2019-01-09T17:08:49.221Z,73.90
2019-01-09T17:11:21.025Z,73.90
2019-01-09T17:13:52.715Z,73.90
2019-01-09T17:16:24.248Z,74.20
2019-01-09T17:18:56.155Z,73.80
2019-01-09T17:21:27.565Z,73.50
2019-01-09T17:23:58.622Z,73.40
2019-01-09T17:26:29.619Z,73.40
2019-01-09T17:29:00.672Z,73.60
2019-01-09T17:31:32.337Z,73.60
2019-01-09T17:34:03.701Z,73.60
2019-01-09T17:36:35.345Z,73.50
2019-01-09T17:39:09.659Z,73.70
2019-01-09T17:41:41.460Z,73.80
2019-01-09T17:44:13.306Z,73.70
2019-01-09T17:46:45.475Z,73.70
2019-01-09T17:49:17.296Z,73.80
2019-01-09T17:51:49.435Z,73.90
2019-01-09T17:54:21.259Z,74.10
2019-01-09T17:56:52.966Z,74.00
2019-01-09T17:59:32.772Z,74.00
2019-01-09T18:02:04.634Z,74.20
2019-01-09T18:04:36.371Z,74.20
2019-01-09T18:07:08.020Z,74.10
2019-01-09T18:09:39.779Z,74.20
2019-01-09T18:12:11.839Z,74.10
2019-01-09T18:14:43.543Z,74.20
2019-01-09T18:17:14.819Z,74.30
2019-01-09T18:19:46.380Z,73.80
2019-01-09T18:22:19.003Z,73.70
2019-01-09T18:24:50.539Z,73.70
2019-01-09T18:27:22.039Z,73.50
2019-01-09T18:29:56.020Z,73.40
2019-01-09T18:32:47.636Z,73.40
2019-01-09T18:35:57.921Z,73.30
2019-01-09T18:38:47.022Z,73.50
2019-01-09T18:41:53.459Z,73.90
2019-01-09T18:45:13.457Z,73.80
2019-01-09T18:48:16.240Z,73.60
2019-01-09T18:51:18.541Z,73.40
2019-01-09T18:53:52.468Z,73.50
2019-01-09T18:56:23.432Z,73.50
2019-01-09T18:58:54.215Z,73.60
2019-01-09T19:01:25.017Z,73.40
2019-01-09T19:03:55.823Z,73.40
2019-01-09T19:06:34.792Z,73.10
2019-01-09T19:08:59.147Z,73.10
2019-01-09T19:11:30.135Z,73.10
2019-01-09T19:14:00.991Z,73.00
2019-01-09T19:16:33.097Z,73.10
2019-01-09T19:19:04.184Z,72.90
2019-01-09T19:21:35.088Z,72.70
2019-01-09T19:24:06.358Z,72.70
2019-01-09T19:26:37.152Z,72.50
2019-01-09T19:29:08.409Z,72.50
2019-01-09T19:31:39.397Z,72.50
2019-01-09T19:34:10.785Z,72.10
2019-01-09T19:36:41.879Z,71.70
2019-01-09T19:39:12.698Z,71.80
2019-01-09T19:41:43.591Z,71.70
2019-01-09T19:44:14.831Z,71.70
2019-01-09T19:46:46.859Z,71.60
2019-01-09T19:49:17.960Z,71.30
2019-01-09T19:51:48.904Z,71.30
2019-01-09T19:54:19.978Z,71.40
2019-01-09T19:56:50.828Z,71.40
2019-01-09T19:59:22.467Z,71.60
2019-01-09T20:01:53.523Z,71.70
2019-01-09T20:04:24.431Z,71.70
2019-01-09T20:06:56.430Z,71.60
2019-01-09T20:09:27.453Z,71.60
2019-01-09T20:11:58.445Z,71.70
2019-01-09T20:14:29.393Z,71.70
2019-01-09T20:17:00.405Z,71.80
2019-01-09T20:19:32.552Z,71.60
2019-01-09T20:22:05.085Z,71.50
2019-01-09T20:24:36.140Z,71.70
2019-01-09T20:27:07.052Z,71.50
2019-01-09T20:29:38.173Z,71.50
2019-01-09T20:32:09.557Z,71.40
2019-01-09T20:34:40.546Z,71.30
2019-01-09T20:37:11.460Z,71.50
2019-01-09T20:39:42.338Z,71.50
2019-01-09T20:42:13.263Z,71.40
2019-01-09T20:44:44.308Z,71.30
2019-01-09T20:47:15.519Z,71.30
2019-01-09T20:49:46.410Z,71.20
2019-01-09T20:52:17.470Z,71.10
2019-01-09T20:54:48.413Z,70.70
2019-01-09T20:57:19.323Z,70.80
2019-01-09T20:59:50.238Z,70.80
2019-01-09T21:02:21.058Z,70.90
2019-01-09T21:04:51.967Z,70.40
2019-01-09T21:07:22.897Z,70.20
2019-01-09T21:09:53.992Z,70.00
2019-01-09T21:12:25.932Z,68.80
2019-01-09T21:14:57.765Z,69.30
2019-01-09T21:17:29.606Z,69.20
2019-01-09T21:20:01.032Z,69.10
2019-01-09T21:22:32.103Z,68.90
2019-01-09T21:25:03.129Z,68.70
2019-01-09T21:27:41.947Z,68.90
2019-01-09T21:30:08.597Z,68.40
2019-01-09T21:32:39.886Z,68.20
2019-01-09T21:35:12.065Z,68.10
2019-01-09T21:37:43.358Z,68.10
2019-01-09T21:40:25.791Z,68.30
2019-01-09T21:42:56.786Z,68.40
2019-01-09T21:45:28.051Z,68.80
2019-01-09T21:47:59.399Z,68.60
2019-01-09T21:50:31.363Z,68.30
2019-01-09T21:53:02.477Z,68.50
2019-01-09T21:55:34.595Z,68.70
2019-01-09T21:58:05.547Z,68.40
2019-01-09T22:00:36.525Z,68.30
2019-01-09T22:03:07.392Z,68.30
2019-01-09T22:05:38.612Z,68.40
2019-01-09T22:08:09.655Z,68.70
2019-01-09T22:10:40.497Z,69.00
2019-01-09T22:13:11.472Z,69.20
2019-01-09T22:15:42.477Z,69.00
2019-01-09T22:18:13.766Z,69.00
2019-01-09T22:20:44.967Z,68.90
2019-01-09T22:23:16.069Z,68.80
2019-01-09T22:25:47.227Z,68.70
2019-01-09T22:28:18.022Z,68.70
2019-01-09T22:30:49.024Z,68.70
2019-01-09T22:33:19.907Z,69.30
2019-01-09T22:35:50.878Z,69.40
2019-01-09T22:38:21.754Z,69.20
2019-01-09T22:40:52.706Z,69.10
2019-01-09T22:43:23.602Z,69.10
2019-01-09T22:45:54.844Z,69.40
2019-01-09T22:48:25.734Z,69.50
2019-01-09T22:50:56.639Z,69.20
2019-01-09T22:53:27.482Z,69.30
2019-01-09T22:55:58.538Z,69.60
2019-01-09T22:58:29.339Z,69.30
2019-01-09T23:01:11.401Z,69.10
2019-01-09T23:03:42.716Z,68.70
2019-01-09T23:06:13.819Z,69.20
2019-01-09T23:08:44.806Z,69.30
2019-01-09T23:11:15.618Z,68.80
2019-01-09T23:13:46.673Z,68.50
2019-01-09T23:16:17.705Z,68.80
2019-01-09T23:18:48.650Z,68.50
2019-01-09T23:21:19.695Z,68.60
2019-01-09T23:23:50.646Z,68.40
2019-01-09T23:26:21.703Z,68.00
2019-01-09T23:28:52.537Z,68.10
2019-01-09T23:31:23.520Z,68.60
2019-01-09T23:33:54.396Z,68.10
2019-01-09T23:36:27.407Z,68.40
2019-01-09T23:38:57.692Z,68.60
2019-01-09T23:41:28.705Z,68.40
2019-01-09T23:43:59.659Z,67.70
2019-01-09T23:46:30.555Z,67.60
2019-01-09T23:49:02.462Z,67.70
2019-01-09T23:51:33.350Z,66.80
2019-01-09T23:54:06.305Z,67.40
2019-01-09T23:56:37.266Z,67.70
2019-01-09T23:59:11.204Z,67.80
